KAUW/AUW METAR and TAF weather

Enter ICAO airport designator
Station Type Date Time Source
KAUW METAR 2019/08/25 17:54 UTC NOAA

KAUW 251754Z AUTO 17009KT 10SM BKN040 BKN047 21/12 A3011 RMK AO2 SLP198 T02110122 10222 20111 58012


Station Type Date Time Source
KAUW Decoded METAR 2019/08/25 17:54 UTC NOAA

Station name not available
Aug 25, 2019 - 01:54 PM EDT / 2019.08.25 1754 UTC
Wind: from the S (170 degrees) at 10 MPH (9 KT):0
Visibility: 10 mile(s):0
Sky conditions: mostly cloudy
Temperature: 70.0 F (21.1 C)
Dew Point: 54.0 F (12.2 C)
Relative Humidity: 56%
Pressure (altimeter): 30.11 in. Hg (1019 hPa)
Pressure tendency: 0.04 inches (1.2 hPa) lower than three hours ago
ob: KAUW 251754Z AUTO 17009KT 10SM BKN040 BKN047 21/12 A3011 RMK AO2 SLP198 T02110122 10222 20111 58012
cycle: 18

Station Type Date Time Source
KAUW TAF 2019/08/25 18:39 UTC NOAA

TAF KAUW 251736Z 2518/2618 15010G17KT P6SM SCT040 SCT200
TEMPO 2518/2521 BKN040
FM252100 15009G16KT P6SM SCT050 BKN200
FM260200 13007KT P6SM SCT035 BKN110
FM260600 13005KT P6SM BKN035 BKN090
FM261500 14009G15KT P6SM BKN025 BKN060

Example: see airport list